Terminal Aerodrome Forecast
Issued by NWS

Home | Current Version | Previous Version | Text Only | Print | Product List | Glossary On
Versions: 1 2 3 4 5 6 7 8 9 10 11 12
000
FTAK31 PAJN 261700
TAFAYA
TAF
PAYA 261720Z 2618/2718 06008G18KT P6SM SCT025 BKN040 OVC070
      TEMPO 2618/2622 17006KT
     FM262200 09008G18KT P6SM BKN025 OVC040
     FM270300 12012G22KT P6SM -RA BKN030 OVC050
     FM270800 10008KT P6SM -SHRA BKN040 OVC060
     FM271400 10008KT P6SM VCSH BKN040 OVC060
      AMD LTD TO CLD VIS AND WIND 2701/2710=

USA.gov is the U.S. government's official web portal to all federal, state and local government web resources and services.